sensor_id;sensor_type;location;lat;lon;timestamp;P1;durP1;ratioP1;P2;durP2;ratioP2
37867;SDS011;24011;48.880;9.190;2023-01-05T00:02:08;0.10;;;0.10;;
37867;SDS011;24011;48.880;9.190;2023-01-05T00:05:13;0.10;;;0.10;;
37867;SDS011;24011;48.880;9.190;2023-01-05T00:08:26;0.10;;;0.10;;
37867;SDS011;24011;48.880;9.190;2023-01-05T00:11:31;0.20;;;0.20;;
37867;SDS011;24011;48.880;9.190;2023-01-05T00:14:44;0.20;;;0.20;;
37867;SDS011;24011;48.880;9.190;2023-01-05T00:17:56;0.10;;;0.10;;
37867;SDS011;24011;48.880;9.190;2023-01-05T00:21:13;0.10;;;0.10;;
37867;SDS011;24011;48.880;9.190;2023-01-05T00:24:31;0.20;;;0.20;;
37867;SDS011;24011;48.880;9.190;2023-01-05T00:27:44;0.15;;;0.15;;
37867;SDS011;24011;48.880;9.190;2023-01-05T00:30:50;0.10;;;0.10;;
37867;SDS011;24011;48.880;9.190;2023-01-05T00:33:56;0.43;;;0.43;;
37867;SDS011;24011;48.880;9.190;2023-01-05T00:37:02;0.10;;;0.10;;
37867;SDS011;24011;48.880;9.190;2023-01-05T00:40:14;0.10;;;0.10;;
37867;SDS011;24011;48.880;9.190;2023-01-05T00:43:18;0.10;;;0.10;;
37867;SDS011;24011;48.880;9.190;2023-01-05T00:46:44;0.10;;;0.10;;
37867;SDS011;24011;48.880;9.190;2023-01-05T00:50:17;0.10;;;0.10;;
37867;SDS011;24011;48.880;9.190;2023-01-05T00:53:38;0.20;;;0.20;;
37867;SDS011;24011;48.880;9.190;2023-01-05T00:57:18;0.10;;;0.10;;
37867;SDS011;24011;48.880;9.190;2023-01-05T01:00:45;0.10;;;0.10;;
37867;SDS011;24011;48.880;9.190;2023-01-05T01:04:17;0.10;;;0.10;;
37867;SDS011;24011;48.880;9.190;2023-01-05T01:07:39;0.10;;;0.10;;
37867;SDS011;24011;48.880;9.190;2023-01-05T01:11:11;0.20;;;0.20;;
37867;SDS011;24011;48.880;9.190;2023-01-05T01:14:30;0.17;;;0.17;;
37867;SDS011;24011;48.880;9.190;2023-01-05T01:17:57;0.20;;;0.20;;
37867;SDS011;24011;48.880;9.190;2023-01-05T01:21:11;0.10;;;0.10;;
37867;SDS011;24011;48.880;9.190;2023-01-05T01:24:47;0.10;;;0.10;;
37867;SDS011;24011;48.880;9.190;2023-01-05T01:28:09;0.10;;;0.10;;
37867;SDS011;24011;48.880;9.190;2023-01-05T01:31:47;0.20;;;0.20;;
37867;SDS011;24011;48.880;9.190;2023-01-05T01:35:09;0.10;;;0.10;;
37867;SDS011;24011;48.880;9.190;2023-01-05T01:38:33;0.10;;;0.10;;
37867;SDS011;24011;48.880;9.190;2023-01-05T01:41:53;0.10;;;0.10;;
37867;SDS011;24011;48.880;9.190;2023-01-05T01:45:18;0.10;;;0.10;;
37867;SDS011;24011;48.880;9.190;2023-01-05T01:48:29;0.30;;;0.30;;
37867;SDS011;24011;48.880;9.190;2023-01-05T01:51:40;0.10;;;0.10;;
37867;SDS011;24011;48.880;9.190;2023-01-05T01:54:48;0.10;;;0.10;;
37867;SDS011;24011;48.880;9.190;2023-01-05T01:58:10;0.10;;;0.10;;
37867;SDS011;24011;48.880;9.190;2023-01-05T02:01:35;0.10;;;0.10;;
37867;SDS011;24011;48.880;9.190;2023-01-05T02:09:11;0.10;;;0.10;;
37867;SDS011;24011;48.880;9.190;2023-01-05T02:12:48;0.10;;;0.10;;
37867;SDS011;24011;48.880;9.190;2023-01-05T02:16:18;0.10;;;0.10;;
37867;SDS011;24011;48.880;9.190;2023-01-05T02:20:29;0.10;;;0.10;;
37867;SDS011;24011;48.880;9.190;2023-01-05T02:28:12;0.15;;;0.10;;
37867;SDS011;24011;48.880;9.190;2023-01-05T02:31:47;0.10;;;0.10;;
37867;SDS011;24011;48.880;9.190;2023-01-05T02:35:32;0.10;;;0.10;;
37867;SDS011;24011;48.880;9.190;2023-01-05T02:39:00;0.10;;;0.10;;
37867;SDS011;24011;48.880;9.190;2023-01-05T02:42:47;0.22;;;0.17;;
37867;SDS011;24011;48.880;9.190;2023-01-05T02:54:23;0.10;;;0.10;;
37867;SDS011;24011;48.880;9.190;2023-01-05T02:58:29;0.10;;;0.10;;
37867;SDS011;24011;48.880;9.190;2023-01-05T03:02:18;0.10;;;0.10;;
37867;SDS011;24011;48.880;9.190;2023-01-05T03:05:49;0.10;;;0.10;;
37867;SDS011;24011;48.880;9.190;2023-01-05T03:09:17;0.10;;;0.10;;
37867;SDS011;24011;48.880;9.190;2023-01-05T03:12:43;0.10;;;0.10;;
37867;SDS011;24011;48.880;9.190;2023-01-05T03:16:12;0.10;;;0.10;;
37867;SDS011;24011;48.880;9.190;2023-01-05T03:19:49;0.10;;;0.10;;
37867;SDS011;24011;48.880;9.190;2023-01-05T03:23:13;0.10;;;0.10;;
37867;SDS011;24011;48.880;9.190;2023-01-05T03:26:49;0.10;;;0.10;;
37867;SDS011;24011;48.880;9.190;2023-01-05T03:30:11;0.10;;;0.10;;
37867;SDS011;24011;48.880;9.190;2023-01-05T03:33:43;0.10;;;0.10;;
37867;SDS011;24011;48.880;9.190;2023-01-05T03:37:12;0.10;;;0.10;;
37867;SDS011;24011;48.880;9.190;2023-01-05T03:40:49;0.10;;;0.10;;
37867;SDS011;24011;48.880;9.190;2023-01-05T03:44:24;0.10;;;0.10;;
37867;SDS011;24011;48.880;9.190;2023-01-05T03:47:48;0.10;;;0.10;;
37867;SDS011;24011;48.880;9.190;2023-01-05T03:51:07;0.10;;;0.10;;
37867;SDS011;24011;48.880;9.190;2023-01-05T03:54:37;0.10;;;0.10;;
37867;SDS011;24011;48.880;9.190;2023-01-05T03:58:01;0.10;;;0.10;;
37867;SDS011;24011;48.880;9.190;2023-01-05T04:01:30;0.10;;;0.10;;
37867;SDS011;24011;48.880;9.190;2023-01-05T04:04:54;0.10;;;0.10;;
37867;SDS011;24011;48.880;9.190;2023-01-05T04:08:25;0.10;;;0.10;;
37867;SDS011;24011;48.880;9.190;2023-01-05T04:11:54;0.10;;;0.10;;
37867;SDS011;24011;48.880;9.190;2023-01-05T04:15:25;0.10;;;0.10;;
37867;SDS011;24011;48.880;9.190;2023-01-05T04:18:54;0.10;;;0.10;;
37867;SDS011;24011;48.880;9.190;2023-01-05T04:22:25;0.00;;;0.00;;
37867;SDS011;24011;48.880;9.190;2023-01-05T04:26:01;0.10;;;0.10;;
37867;SDS011;24011;48.880;9.190;2023-01-05T04:29:26;0.17;;;0.10;;
37867;SDS011;24011;48.880;9.190;2023-01-05T04:32:48;0.10;;;0.10;;
37867;SDS011;24011;48.880;9.190;2023-01-05T04:42:48;0.10;;;0.10;;
37867;SDS011;24011;48.880;9.190;2023-01-05T04:46:01;0.10;;;0.10;;
37867;SDS011;24011;48.880;9.190;2023-01-05T04:49:12;0.10;;;0.10;;
37867;SDS011;24011;48.880;9.190;2023-01-05T04:52:32;0.10;;;0.10;;
37867;SDS011;24011;48.880;9.190;2023-01-05T04:55:56;0.10;;;0.10;;
37867;SDS011;24011;48.880;9.190;2023-01-05T04:59:20;0.10;;;0.10;;
37867;SDS011;24011;48.880;9.190;2023-01-05T05:02:30;0.10;;;0.10;;
37867;SDS011;24011;48.880;9.190;2023-01-05T05:05:32;0.05;;;0.05;;
37867;SDS011;24011;48.880;9.190;2023-01-05T05:09:02;0.10;;;0.10;;
37867;SDS011;24011;48.880;9.190;2023-01-05T05:12:26;0.10;;;0.10;;
37867;SDS011;24011;48.880;9.190;2023-01-05T05:15:48;0.10;;;0.10;;
37867;SDS011;24011;48.880;9.190;2023-01-05T05:19:18;0.00;;;0.00;;
37867;SDS011;24011;48.880;9.190;2023-01-05T05:22:11;0.10;;;0.10;;
37867;SDS011;24011;48.880;9.190;2023-01-05T05:25:13;0.10;;;0.10;;
37867;SDS011;24011;48.880;9.190;2023-01-05T05:34:42;0.20;;;0.10;;
37867;SDS011;24011;48.880;9.190;2023-01-05T05:37:34;0.20;;;0.20;;
37867;SDS011;24011;48.880;9.190;2023-01-05T05:41:32;0.63;;;0.20;;
37867;SDS011;24011;48.880;9.190;2023-01-05T05:44:55;0.20;;;0.20;;
37867;SDS011;24011;48.880;9.190;2023-01-05T07:42:24;0.65;;;0.28;;
37867;SDS011;24011;48.880;9.190;2023-01-05T07:45:02;0.20;;;0.20;;
37867;SDS011;24011;48.880;9.190;2023-01-05T07:48:10;0.30;;;0.30;;
37867;SDS011;24011;48.880;9.190;2023-01-05T07:52:10;0.52;;;0.30;;
37867;SDS011;24011;48.880;9.190;2023-01-05T09:53:32;1.38;;;0.50;;
37867;SDS011;24011;48.880;9.190;2023-01-05T09:57:48;0.20;;;0.20;;
37867;SDS011;24011;48.880;9.190;2023-01-05T10:26:57;2.08;;;0.40;;
37867;SDS011;24011;48.880;9.190;2023-01-05T10:38:41;0.52;;;0.47;;
37867;SDS011;24011;48.880;9.190;2023-01-05T10:46:08;0.60;;;0.40;;
37867;SDS011;24011;48.880;9.190;2023-01-05T11:15:42;0.40;;;0.28;;
37867;SDS011;24011;48.880;9.190;2023-01-05T12:32:56;1.85;;;0.60;;
37867;SDS011;24011;48.880;9.190;2023-01-05T13:41:18;0.65;;;0.60;;
37867;SDS011;24011;48.880;9.190;2023-01-05T13:51:47;0.68;;;0.60;;
37867;SDS011;24011;48.880;9.190;2023-01-05T13:55:12;0.50;;;0.50;;
37867;SDS011;24011;48.880;9.190;2023-01-05T13:58:36;1.20;;;0.50;;
37867;SDS011;24011;48.880;9.190;2023-01-05T14:01:38;0.55;;;0.50;;
37867;SDS011;24011;48.880;9.190;2023-01-05T14:04:44;1.10;;;0.70;;
37867;SDS011;24011;48.880;9.190;2023-01-05T14:08:15;0.52;;;0.45;;
37867;SDS011;24011;48.880;9.190;2023-01-05T14:11:14;0.40;;;0.40;;
37867;SDS011;24011;48.880;9.190;2023-01-05T14:14:56;0.47;;;0.47;;
37867;SDS011;24011;48.880;9.190;2023-01-05T14:18:14;1.15;;;0.80;;
37867;SDS011;24011;48.880;9.190;2023-01-05T14:25:48;0.50;;;0.50;;
37867;SDS011;24011;48.880;9.190;2023-01-05T14:28:54;0.50;;;0.50;;
37867;SDS011;24011;48.880;9.190;2023-01-05T14:32:12;0.50;;;0.50;;
37867;SDS011;24011;48.880;9.190;2023-01-05T14:35:42;0.50;;;0.50;;
37867;SDS011;24011;48.880;9.190;2023-01-05T14:38:56;0.35;;;0.35;;
37867;SDS011;24011;48.880;9.190;2023-01-05T14:42:28;0.52;;;0.50;;
37867;SDS011;24011;48.880;9.190;2023-01-05T14:46:00;0.50;;;0.50;;
37867;SDS011;24011;48.880;9.190;2023-01-05T14:49:25;0.50;;;0.50;;
37867;SDS011;24011;48.880;9.190;2023-01-05T14:57:41;1.55;;;0.40;;
37867;SDS011;24011;48.880;9.190;2023-01-05T15:01:39;0.57;;;0.50;;
37867;SDS011;24011;48.880;9.190;2023-01-05T15:13:03;0.43;;;0.43;;
37867;SDS011;24011;48.880;9.190;2023-01-05T15:20:56;0.40;;;0.40;;
37867;SDS011;24011;48.880;9.190;2023-01-05T15:28:22;0.63;;;0.60;;
37867;SDS011;24011;48.880;9.190;2023-01-05T15:31:34;0.70;;;0.47;;
37867;SDS011;24011;48.880;9.190;2023-01-05T15:35:02;0.50;;;0.50;;
37867;SDS011;24011;48.880;9.190;2023-01-05T15:38:26;0.70;;;0.68;;
37867;SDS011;24011;48.880;9.190;2023-01-05T15:41:32;0.77;;;0.70;;
37867;SDS011;24011;48.880;9.190;2023-01-05T15:45:02;1.00;;;0.90;;
37867;SDS011;24011;48.880;9.190;2023-01-05T15:48:39;1.10;;;1.00;;
37867;SDS011;24011;48.880;9.190;2023-01-05T15:52:20;1.02;;;0.93;;
37867;SDS011;24011;48.880;9.190;2023-01-05T15:55:49;1.00;;;0.90;;
37867;SDS011;24011;48.880;9.190;2023-01-05T15:58:50;0.70;;;0.70;;
37867;SDS011;24011;48.880;9.190;2023-01-05T16:02:32;0.80;;;0.80;;
37867;SDS011;24011;48.880;9.190;2023-01-05T16:05:58;0.73;;;0.73;;
37867;SDS011;24011;48.880;9.190;2023-01-05T16:12:33;0.60;;;0.60;;
37867;SDS011;24011;48.880;9.190;2023-01-05T16:16:03;0.60;;;0.60;;
37867;SDS011;24011;48.880;9.190;2023-01-05T16:19:45;0.75;;;0.60;;
37867;SDS011;24011;48.880;9.190;2023-01-05T16:23:20;0.90;;;0.70;;
37867;SDS011;24011;48.880;9.190;2023-01-05T16:26:50;0.60;;;0.60;;
37867;SDS011;24011;48.880;9.190;2023-01-05T16:30:22;0.60;;;0.50;;
37867;SDS011;24011;48.880;9.190;2023-01-05T16:33:59;0.73;;;0.70;;
37867;SDS011;24011;48.880;9.190;2023-01-05T16:53:09;0.52;;;0.50;;
37867;SDS011;24011;48.880;9.190;2023-01-05T17:13:02;0.40;;;0.40;;
37867;SDS011;24011;48.880;9.190;2023-01-05T17:16:14;0.70;;;0.70;;
37867;SDS011;24011;48.880;9.190;2023-01-05T17:19:43;0.40;;;0.40;;
37867;SDS011;24011;48.880;9.190;2023-01-05T17:23:02;0.50;;;0.50;;
37867;SDS011;24011;48.880;9.190;2023-01-05T17:26:37;0.60;;;0.60;;
37867;SDS011;24011;48.880;9.190;2023-01-05T17:33:43;0.30;;;0.30;;
37867;SDS011;24011;48.880;9.190;2023-01-05T17:37:02;0.55;;;0.55;;
37867;SDS011;24011;48.880;9.190;2023-01-05T17:40:33;0.88;;;0.60;;
37867;SDS011;24011;48.880;9.190;2023-01-05T17:43:20;0.40;;;0.40;;
37867;SDS011;24011;48.880;9.190;2023-01-05T17:46:55;0.47;;;0.47;;
37867;SDS011;24011;48.880;9.190;2023-01-05T17:50:26;0.40;;;0.40;;
37867;SDS011;24011;48.880;9.190;2023-01-05T17:53:56;0.60;;;0.55;;
37867;SDS011;24011;48.880;9.190;2023-01-05T17:57:27;0.45;;;0.45;;
37867;SDS011;24011;48.880;9.190;2023-01-05T18:00:56;0.50;;;0.50;;
37867;SDS011;24011;48.880;9.190;2023-01-05T18:07:45;0.50;;;0.50;;
37867;SDS011;24011;48.880;9.190;2023-01-05T18:11:15;0.60;;;0.60;;
37867;SDS011;24011;48.880;9.190;2023-01-05T18:14:26;0.60;;;0.60;;
37867;SDS011;24011;48.880;9.190;2023-01-05T18:17:51;0.60;;;0.60;;
37867;SDS011;24011;48.880;9.190;2023-01-05T18:21:27;0.65;;;0.60;;
37867;SDS011;24011;48.880;9.190;2023-01-05T18:24:56;0.50;;;0.50;;
37867;SDS011;24011;48.880;9.190;2023-01-05T18:28:21;0.57;;;0.55;;
37867;SDS011;24011;48.880;9.190;2023-01-05T18:31:50;0.60;;;0.60;;
37867;SDS011;24011;48.880;9.190;2023-01-05T18:35:21;0.50;;;0.50;;
37867;SDS011;24011;48.880;9.190;2023-01-05T18:38:56;0.60;;;0.60;;
37867;SDS011;24011;48.880;9.190;2023-01-05T18:42:20;0.63;;;0.60;;
37867;SDS011;24011;48.880;9.190;2023-01-05T18:45:52;0.50;;;0.50;;
37867;SDS011;24011;48.880;9.190;2023-01-05T18:48:51;0.70;;;0.70;;
37867;SDS011;24011;48.880;9.190;2023-01-05T18:52:20;0.50;;;0.50;;
37867;SDS011;24011;48.880;9.190;2023-01-05T18:55:57;0.50;;;0.50;;
37867;SDS011;24011;48.880;9.190;2023-01-05T18:58:57;0.60;;;0.60;;
37867;SDS011;24011;48.880;9.190;2023-01-05T19:02:27;0.65;;;0.65;;
37867;SDS011;24011;48.880;9.190;2023-01-05T19:05:45;0.68;;;0.68;;
37867;SDS011;24011;48.880;9.190;2023-01-05T19:08:50;0.63;;;0.63;;
37867;SDS011;24011;48.880;9.190;2023-01-05T19:12:21;0.60;;;0.52;;
37867;SDS011;24011;48.880;9.190;2023-01-05T19:15:45;0.60;;;0.60;;
37867;SDS011;24011;48.880;9.190;2023-01-05T19:18:58;0.60;;;0.60;;
37867;SDS011;24011;48.880;9.190;2023-01-05T19:22:38;0.50;;;0.50;;
37867;SDS011;24011;48.880;9.190;2023-01-05T19:26:32;0.40;;;0.40;;
37867;SDS011;24011;48.880;9.190;2023-01-05T20:54:07;0.50;;;0.50;;
37867;SDS011;24011;48.880;9.190;2023-01-05T20:57:39;0.52;;;0.52;;
37867;SDS011;24011;48.880;9.190;2023-01-05T21:01:51;0.50;;;0.50;;
37867;SDS011;24011;48.880;9.190;2023-01-05T21:05:57;0.57;;;0.57;;
37867;SDS011;24011;48.880;9.190;2023-01-05T21:43:41;0.60;;;0.50;;
37867;SDS011;24011;48.880;9.190;2023-01-05T21:47:35;0.47;;;0.47;;
37867;SDS011;24011;48.880;9.190;2023-01-05T21:51:47;0.50;;;0.50;;
37867;SDS011;24011;48.880;9.190;2023-01-05T21:55:47;0.60;;;0.60;;
37867;SDS011;24011;48.880;9.190;2023-01-05T22:15:42;0.50;;;0.50;;
37867;SDS011;24011;48.880;9.190;2023-01-05T22:19:11;0.60;;;0.60;;
37867;SDS011;24011;48.880;9.190;2023-01-05T22:22:42;0.50;;;0.50;;
37867;SDS011;24011;48.880;9.190;2023-01-05T22:26:11;0.65;;;0.65;;
37867;SDS011;24011;48.880;9.190;2023-01-05T22:29:23;0.50;;;0.50;;
37867;SDS011;24011;48.880;9.190;2023-01-05T22:32:54;0.40;;;0.40;;
37867;SDS011;24011;48.880;9.190;2023-01-05T22:36:24;0.47;;;0.47;;
37867;SDS011;24011;48.880;9.190;2023-01-05T22:39:53;0.60;;;0.60;;
37867;SDS011;24011;48.880;9.190;2023-01-05T22:43:18;0.50;;;0.50;;
37867;SDS011;24011;48.880;9.190;2023-01-05T22:46:47;0.50;;;0.50;;
37867;SDS011;24011;48.880;9.190;2023-01-05T22:50:30;0.38;;;0.38;;
37867;SDS011;24011;48.880;9.190;2023-01-05T22:54:00;0.47;;;0.47;;
37867;SDS011;24011;48.880;9.190;2023-01-05T22:57:36;0.40;;;0.40;;
37867;SDS011;24011;48.880;9.190;2023-01-05T23:00:47;0.40;;;0.40;;
37867;SDS011;24011;48.880;9.190;2023-01-05T23:04:18;0.47;;;0.47;;
37867;SDS011;24011;48.880;9.190;2023-01-05T23:07:54;0.93;;;0.40;;
37867;SDS011;24011;48.880;9.190;2023-01-05T23:11:25;0.52;;;0.52;;
37867;SDS011;24011;48.880;9.190;2023-01-05T23:14:48;0.40;;;0.40;;
37867;SDS011;24011;48.880;9.190;2023-01-05T23:18:24;0.90;;;0.50;;
37867;SDS011;24011;48.880;9.190;2023-01-05T23:21:48;0.40;;;0.40;;
37867;SDS011;24011;48.880;9.190;2023-01-05T23:25:32;0.30;;;0.30;;
37867;SDS011;24011;48.880;9.190;2023-01-05T23:29:06;0.50;;;0.50;;
37867;SDS011;24011;48.880;9.190;2023-01-05T23:32:34;0.40;;;0.40;;
37867;SDS011;24011;48.880;9.190;2023-01-05T23:35:41;0.40;;;0.40;;
37867;SDS011;24011;48.880;9.190;2023-01-05T23:38:52;0.30;;;0.30;;
37867;SDS011;24011;48.880;9.190;2023-01-05T23:45:23;0.60;;;0.60;;
37867;SDS011;24011;48.880;9.190;2023-01-05T23:48:53;0.45;;;0.45;;
37867;SDS011;24011;48.880;9.190;2023-01-05T23:52:17;0.47;;;0.47;;
37867;SDS011;24011;48.880;9.190;2023-01-05T23:55:47;0.50;;;0.50;;
37867;SDS011;24011;48.880;9.190;2023-01-05T23:59:25;0.50;;;0.50;;
